createdAt,value
2023-01-29T00:03:33.762Z,15.43
2023-01-29T00:06:20.949Z,14.15
2023-01-29T00:09:08.101Z,15.77
2023-01-29T00:11:55.236Z,15.65
2023-01-29T00:14:42.390Z,16.42
2023-01-29T00:17:29.505Z,17.27
2023-01-29T00:20:17.693Z,16.77
2023-01-29T00:23:04.986Z,15.32
2023-01-29T00:25:52.078Z,16.13
2023-01-29T00:28:39.159Z,15.93
2023-01-29T00:31:26.577Z,15.50
2023-01-29T00:34:13.934Z,17.02
2023-01-29T00:37:04.903Z,15.13
2023-01-29T00:39:51.954Z,14.60
2023-01-29T00:42:57.784Z,16.08
2023-01-29T00:45:44.809Z,15.52
2023-01-29T00:48:31.913Z,16.80
2023-01-29T00:51:18.968Z,15.23
2023-01-29T00:54:07.000Z,16.38
2023-01-29T00:56:54.073Z,17.83
2023-01-29T00:59:41.342Z,16.52
2023-01-29T01:02:51.788Z,15.80
2023-01-29T01:05:39.357Z,16.25
2023-01-29T01:08:44.999Z,15.93
2023-01-29T01:11:33.835Z,17.23
2023-01-29T01:14:21.198Z,16.20
2023-01-29T01:17:08.290Z,17.55
2023-01-29T01:19:55.353Z,15.90
2023-01-29T01:22:42.629Z,15.15
2023-01-29T01:25:29.710Z,15.45
2023-01-29T01:28:17.191Z,15.13
2023-01-29T01:31:12.788Z,15.85
2023-01-29T01:34:00.063Z,16.48
2023-01-29T01:36:47.200Z,16.95
2023-01-29T01:39:34.266Z,16.33
2023-01-29T01:42:21.289Z,15.70
2023-01-29T01:45:22.609Z,14.00
2023-01-29T01:48:23.364Z,17.55
2023-01-29T01:51:10.781Z,14.45
2023-01-29T01:54:06.145Z,15.55
2023-01-29T01:57:05.094Z,15.18
2023-01-29T02:00:10.913Z,14.35
2023-01-29T02:03:16.652Z,15.52
2023-01-29T02:06:22.497Z,16.60
2023-01-29T02:09:35.910Z,16.05
2023-01-29T02:12:23.559Z,15.60
2023-01-29T02:15:11.965Z,14.60
2023-01-29T02:17:59.360Z,14.98
2023-01-29T02:21:25.351Z,14.43
2023-01-29T02:24:42.547Z,13.63
2023-01-29T02:27:56.962Z,14.63
2023-01-29T02:31:21.105Z,14.77
2023-01-29T02:34:23.322Z,13.50
2023-01-29T02:37:13.536Z,12.95
2023-01-29T02:43:32.715Z,13.50
2023-01-29T02:46:58.820Z,14.20
2023-01-29T02:49:56.444Z,12.70
2023-01-29T02:53:06.075Z,11.75
2023-01-29T02:56:03.789Z,12.82
2023-01-29T02:59:16.454Z,14.68
2023-01-29T03:02:10.024Z,13.63
2023-01-29T03:05:01.770Z,13.52
2023-01-29T03:07:59.369Z,13.88
2023-01-29T03:10:54.640Z,14.15
2023-01-29T03:13:44.292Z,13.48
2023-01-29T03:16:42.105Z,12.63
2023-01-29T03:19:41.930Z,13.65
2023-01-29T03:22:31.038Z,14.25
2023-01-29T03:25:41.787Z,14.13
2023-01-29T03:28:49.460Z,13.65
2023-01-29T03:31:56.334Z,12.77
2023-01-29T03:34:57.864Z,13.48
2023-01-29T03:37:48.137Z,12.52
2023-01-29T03:43:44.994Z,12.85
2023-01-29T03:46:48.917Z,12.95
2023-01-29T03:50:03.191Z,14.90
2023-01-29T03:53:04.681Z,13.57
2023-01-29T03:56:07.694Z,12.68
2023-01-29T03:59:20.512Z,13.90
2023-01-29T04:02:13.796Z,13.43
2023-01-29T04:05:09.688Z,12.43
2023-01-29T04:08:05.238Z,14.15
2023-01-29T04:10:57.480Z,13.93
2023-01-29T04:13:46.326Z,13.45
2023-01-29T04:16:44.593Z,14.05
2023-01-29T04:19:31.879Z,14.98
2023-01-29T04:22:29.960Z,13.75
2023-01-29T04:25:26.870Z,14.35
2023-01-29T04:28:23.398Z,13.48
2023-01-29T04:31:13.724Z,13.95
2023-01-29T04:34:22.031Z,13.75
2023-01-29T04:37:35.431Z,14.05
2023-01-29T04:40:50.339Z,13.45
2023-01-29T04:43:55.691Z,14.00
2023-01-29T04:47:07.319Z,13.40
2023-01-29T04:50:13.352Z,14.18
2023-01-29T04:53:18.796Z,13.57
2023-01-29T04:56:29.737Z,14.40
2023-01-29T04:59:32.505Z,13.25
2023-01-29T05:02:21.824Z,13.75
2023-01-29T05:05:10.856Z,12.93
2023-01-29T05:07:59.375Z,13.07
2023-01-29T05:10:49.722Z,14.13
2023-01-29T05:13:39.948Z,13.80
2023-01-29T05:19:17.815Z,13.18
2023-01-29T05:22:16.053Z,12.82
2023-01-29T05:25:03.203Z,13.02
2023-01-29T05:28:10.531Z,12.00
2023-01-29T05:30:58.076Z,12.90
2023-01-29T05:33:45.190Z,12.82
2023-01-29T05:36:32.299Z,13.00
2023-01-29T05:39:19.556Z,12.88
2023-01-29T05:42:06.652Z,13.55
2023-01-29T05:44:53.763Z,12.75
2023-01-29T05:47:40.821Z,13.65
2023-01-29T05:50:28.138Z,13.18
2023-01-29T05:53:15.629Z,13.18
2023-01-29T05:56:04.658Z,12.63
2023-01-29T05:58:51.806Z,13.70
2023-01-29T06:01:39.267Z,13.60
2023-01-29T06:04:26.393Z,13.27
2023-01-29T06:07:13.513Z,13.25
2023-01-29T06:10:00.643Z,14.23
2023-01-29T06:12:47.747Z,12.35
2023-01-29T06:15:34.873Z,12.35
2023-01-29T06:18:22.014Z,13.57
2023-01-29T06:21:11.881Z,13.73
2023-01-29T06:23:59.053Z,14.65
2023-01-29T06:26:46.203Z,13.95
2023-01-29T06:29:33.329Z,13.20
2023-01-29T06:32:22.093Z,13.93
2023-01-29T06:35:10.843Z,14.00
2023-01-29T06:37:58.064Z,13.75
2023-01-29T06:40:45.080Z,12.65
2023-01-29T06:43:32.201Z,13.57
2023-01-29T06:46:19.271Z,12.70
2023-01-29T06:49:06.407Z,13.20
2023-01-29T06:51:53.482Z,13.00
2023-01-29T06:54:40.572Z,12.50
2023-01-29T06:57:29.739Z,13.85
2023-01-29T07:00:17.710Z,13.27
2023-01-29T07:03:05.252Z,13.05
2023-01-29T07:05:53.993Z,12.52
2023-01-29T07:08:41.027Z,12.10
2023-01-29T07:11:28.082Z,12.88
2023-01-29T07:14:15.179Z,12.90
2023-01-29T07:17:02.254Z,12.45
2023-01-29T07:19:49.340Z,13.35
2023-01-29T07:22:36.509Z,12.70
2023-01-29T07:25:24.634Z,12.43
2023-01-29T07:28:11.712Z,12.30
2023-01-29T07:30:59.375Z,12.30
2023-01-29T07:33:46.630Z,13.70
2023-01-29T07:36:33.732Z,13.85
2023-01-29T07:39:20.825Z,13.00
2023-01-29T07:42:07.964Z,14.10
2023-01-29T07:44:55.076Z,13.70
2023-01-29T07:47:42.201Z,13.10
2023-01-29T07:50:29.269Z,13.73
2023-01-29T07:53:16.577Z,14.55
2023-01-29T07:56:03.801Z,12.73
2023-01-29T07:58:50.900Z,13.75
2023-01-29T08:01:38.082Z,14.80
2023-01-29T08:04:25.387Z,13.13
2023-01-29T08:07:12.425Z,13.15
2023-01-29T08:09:59.634Z,13.35
2023-01-29T08:12:54.541Z,13.50
2023-01-29T08:15:45.880Z,15.77
2023-01-29T08:18:33.057Z,14.05
2023-01-29T08:21:21.180Z,13.20
2023-01-29T08:24:08.461Z,14.30
2023-01-29T08:26:55.546Z,14.32
2023-01-29T08:29:42.627Z,15.38
2023-01-29T08:32:29.740Z,16.63
2023-01-29T08:35:16.893Z,14.48
2023-01-29T08:38:05.269Z,14.70
2023-01-29T08:40:52.346Z,15.38
2023-01-29T08:43:39.950Z,14.63
2023-01-29T08:46:27.119Z,12.63
2023-01-29T08:49:14.360Z,13.85
2023-01-29T08:52:03.059Z,14.13
2023-01-29T08:54:51.844Z,14.25
2023-01-29T08:57:39.652Z,13.00
2023-01-29T09:00:26.772Z,13.52
2023-01-29T09:03:14.079Z,15.20
2023-01-29T09:06:01.175Z,13.15
2023-01-29T09:08:49.838Z,14.32
2023-01-29T09:11:38.281Z,13.73
2023-01-29T09:14:25.360Z,13.73
2023-01-29T09:17:12.454Z,14.65
2023-01-29T09:19:59.578Z,14.75
2023-01-29T09:22:47.336Z,13.35
2023-01-29T09:25:34.702Z,14.73
2023-01-29T09:28:21.920Z,14.38
2023-01-29T09:31:09.045Z,14.35
2023-01-29T09:33:56.225Z,13.52
2023-01-29T09:36:43.419Z,14.52
2023-01-29T09:39:30.569Z,14.48
2023-01-29T09:42:42.093Z,13.70
2023-01-29T09:45:30.666Z,12.80
2023-01-29T09:48:18.978Z,13.02
2023-01-29T09:51:15.452Z,12.40
2023-01-29T09:54:20.388Z,12.02
2023-01-29T09:57:19.613Z,12.85
2023-01-29T10:00:13.697Z,11.77
2023-01-29T10:03:23.810Z,12.60
2023-01-29T10:06:23.685Z,11.15
2023-01-29T10:09:38.772Z,11.77
2023-01-29T10:12:48.927Z,10.82
2023-01-29T10:16:02.184Z,10.98
2023-01-29T10:19:01.227Z,9.48
2023-01-29T10:21:51.066Z,10.85
2023-01-29T10:24:43.624Z,10.70
2023-01-29T10:27:40.592Z,10.50
2023-01-29T10:30:41.000Z,11.23
2023-01-29T10:33:49.356Z,11.23
2023-01-29T10:36:49.156Z,11.07
2023-01-29T10:39:36.335Z,12.07
2023-01-29T10:42:34.619Z,10.63
2023-01-29T10:45:33.454Z,11.73
2023-01-29T10:48:37.969Z,11.57
2023-01-29T10:51:46.847Z,11.80
2023-01-29T10:54:53.129Z,11.07
2023-01-29T10:58:09.757Z,10.98
2023-01-29T11:00:57.221Z,10.73
2023-01-29T11:03:44.721Z,10.70
2023-01-29T11:06:35.408Z,10.98
2023-01-29T11:09:35.746Z,10.82
2023-01-29T11:12:30.569Z,9.80
2023-01-29T11:15:30.772Z,10.95
2023-01-29T11:18:18.966Z,10.38
2023-01-29T11:21:06.857Z,9.57
2023-01-29T11:24:19.059Z,10.00
2023-01-29T11:27:23.904Z,10.20
2023-01-29T11:30:22.088Z,9.90
2023-01-29T11:33:23.976Z,10.35
2023-01-29T11:36:34.730Z,9.93
2023-01-29T11:39:26.170Z,10.50
2023-01-29T11:42:21.429Z,10.63
2023-01-29T11:45:26.542Z,9.73
2023-01-29T11:48:23.411Z,8.95
2023-01-29T11:51:22.746Z,10.38
2023-01-29T11:54:18.290Z,10.63
2023-01-29T11:57:22.362Z,9.70
2023-01-29T12:00:35.218Z,8.88
2023-01-29T12:03:37.914Z,8.07
2023-01-29T12:06:42.165Z,8.63
2023-01-29T12:09:31.405Z,7.93
2023-01-29T12:12:30.192Z,7.97
2023-01-29T12:15:25.362Z,8.57
2023-01-29T12:18:27.264Z,7.78
2023-01-29T12:21:27.161Z,9.07
2023-01-29T12:24:42.320Z,7.90
2023-01-29T12:28:09.317Z,7.45
2023-01-29T12:31:24.103Z,8.20
2023-01-29T12:34:33.259Z,6.60
2023-01-29T12:37:42.365Z,8.38
2023-01-29T12:40:40.468Z,7.40
2023-01-29T12:43:47.482Z,7.68
2023-01-29T12:46:43.383Z,7.22
2023-01-29T12:49:35.474Z,7.47
2023-01-29T12:52:43.521Z,7.00
2023-01-29T12:55:44.976Z,7.63
2023-01-29T12:59:00.828Z,6.53
2023-01-29T13:02:01.628Z,6.95
2023-01-29T13:05:19.820Z,6.45
2023-01-29T13:08:31.064Z,5.32
2023-01-29T13:11:41.742Z,6.20
2023-01-29T13:14:47.525Z,6.47
2023-01-29T13:17:45.436Z,5.68
2023-01-29T13:20:35.709Z,5.70
2023-01-29T13:26:26.783Z,5.22
2023-01-29T13:29:30.051Z,6.25
2023-01-29T13:32:27.477Z,5.85
2023-01-29T13:35:16.157Z,5.68
2023-01-29T13:38:07.752Z,5.43
2023-01-29T13:41:01.752Z,5.43
2023-01-29T13:43:51.037Z,4.85
2023-01-29T13:46:42.204Z,4.80
2023-01-29T13:49:47.116Z,5.53
2023-01-29T13:52:52.867Z,5.75
2023-01-29T13:55:41.496Z,5.88
2023-01-29T13:58:31.701Z,5.90
2023-01-29T14:04:29.901Z,5.45
2023-01-29T14:07:45.169Z,5.32
2023-01-29T14:10:34.454Z,5.38
2023-01-29T14:13:21.641Z,5.20
2023-01-29T14:16:14.788Z,5.47
2023-01-29T14:19:05.516Z,5.30
2023-01-29T14:21:53.092Z,5.85
2023-01-29T14:24:43.732Z,5.40
2023-01-29T14:27:32.237Z,4.85
2023-01-29T14:30:19.682Z,5.57
2023-01-29T14:33:33.445Z,5.78
2023-01-29T14:36:24.318Z,5.07
2023-01-29T14:39:44.244Z,5.72
2023-01-29T14:42:40.431Z,5.70
2023-01-29T14:45:30.823Z,5.35
2023-01-29T14:48:38.830Z,5.82
2023-01-29T14:51:32.300Z,5.75
2023-01-29T14:54:26.603Z,5.43
2023-01-29T14:57:18.195Z,5.47
2023-01-29T15:00:15.641Z,5.80
2023-01-29T15:03:13.199Z,5.90
2023-01-29T15:06:02.094Z,5.68
2023-01-29T15:09:18.997Z,5.68
2023-01-29T15:12:16.537Z,6.13
2023-01-29T15:15:11.582Z,6.32
2023-01-29T15:18:34.182Z,8.77
2023-01-29T15:21:21.437Z,6.97
2023-01-29T15:24:14.005Z,7.50
2023-01-29T15:27:03.348Z,6.32
2023-01-29T15:30:00.508Z,6.13
2023-01-29T15:32:48.676Z,6.88
2023-01-29T15:35:42.095Z,6.38
2023-01-29T15:38:30.248Z,5.35
2023-01-29T15:41:23.868Z,5.63
2023-01-29T15:44:27.039Z,6.28
2023-01-29T15:47:16.141Z,5.80
2023-01-29T15:50:04.507Z,5.60
2023-01-29T15:52:53.892Z,5.95
2023-01-29T15:55:42.615Z,4.33
2023-01-29T15:58:32.929Z,5.38
2023-01-29T16:01:25.175Z,5.70
2023-01-29T16:04:24.917Z,5.43
2023-01-29T16:07:12.734Z,4.97
2023-01-29T16:10:01.086Z,5.18
2023-01-29T16:12:54.333Z,6.07
2023-01-29T16:15:56.510Z,5.63
2023-01-29T16:18:59.001Z,6.13
2023-01-29T16:22:01.161Z,6.60
2023-01-29T16:24:53.685Z,6.45
2023-01-29T16:27:45.086Z,6.82
2023-01-29T16:30:33.231Z,6.97
2023-01-29T16:33:22.089Z,7.05
2023-01-29T16:36:28.596Z,5.45
2023-01-29T16:39:22.429Z,6.47
2023-01-29T16:42:13.492Z,6.07
2023-01-29T16:45:03.604Z,5.90
2023-01-29T16:48:23.205Z,6.22
2023-01-29T16:51:45.053Z,6.03
2023-01-29T16:54:32.695Z,5.60
2023-01-29T16:57:27.491Z,6.30
2023-01-29T17:00:26.266Z,6.32
2023-01-29T17:03:16.266Z,6.75
2023-01-29T17:06:13.742Z,6.55
2023-01-29T17:09:02.225Z,6.43
2023-01-29T17:11:58.689Z,7.00
2023-01-29T17:15:06.924Z,7.93
2023-01-29T17:17:54.958Z,7.63
2023-01-29T17:20:43.945Z,7.40
2023-01-29T17:23:31.692Z,7.30
2023-01-29T17:26:20.592Z,7.60
2023-01-29T17:29:20.622Z,7.65
2023-01-29T17:32:10.605Z,6.90
2023-01-29T17:35:00.575Z,6.85
2023-01-29T17:37:48.847Z,6.88
2023-01-29T17:40:44.880Z,6.82
2023-01-29T17:43:33.266Z,7.68
2023-01-29T17:46:22.471Z,9.30
2023-01-29T17:49:23.622Z,7.57
2023-01-29T17:52:11.603Z,6.97
2023-01-29T17:54:59.279Z,7.30
2023-01-29T17:57:47.047Z,7.75
2023-01-29T18:00:36.362Z,7.35
2023-01-29T18:03:24.523Z,7.35
2023-01-29T18:06:25.590Z,7.68
2023-01-29T18:09:15.636Z,10.73
2023-01-29T18:12:03.861Z,9.90
2023-01-29T18:14:51.995Z,7.78
2023-01-29T18:17:41.197Z,8.43
2023-01-29T18:20:30.566Z,8.88
2023-01-29T18:23:21.815Z,8.05
2023-01-29T18:26:18.036Z,8.63
2023-01-29T18:29:10.520Z,8.60
2023-01-29T18:31:58.979Z,8.93
2023-01-29T18:34:46.774Z,8.40
2023-01-29T18:37:42.337Z,8.85
2023-01-29T18:40:31.561Z,8.73
2023-01-29T18:43:21.774Z,8.63
2023-01-29T18:48:57.960Z,7.63
2023-01-29T18:51:46.125Z,7.70
2023-01-29T18:54:34.235Z,8.60
2023-01-29T18:58:27.338Z,9.65
2023-01-29T19:00:33.944Z,8.00
2023-01-29T19:03:22.335Z,8.05
2023-01-29T19:06:12.320Z,7.78
2023-01-29T19:09:01.144Z,8.40
2023-01-29T19:11:49.142Z,8.43
2023-01-29T19:14:37.667Z,8.80
2023-01-29T19:17:26.055Z,9.55
2023-01-29T19:20:14.767Z,9.43
2023-01-29T19:23:03.631Z,9.60
2023-01-29T19:25:52.899Z,9.43
2023-01-29T19:28:41.440Z,9.57
2023-01-29T19:31:32.372Z,9.30
2023-01-29T19:34:21.420Z,9.55
2023-01-29T19:37:09.237Z,9.10
2023-01-29T19:39:59.833Z,8.85
2023-01-29T19:42:49.251Z,8.68
2023-01-29T19:45:49.435Z,8.77
2023-01-29T19:48:38.292Z,9.52
2023-01-29T19:51:29.063Z,10.15
2023-01-29T19:54:17.257Z,11.90
2023-01-29T19:57:07.289Z,11.65
2023-01-29T19:59:56.570Z,10.70
2023-01-29T20:02:44.490Z,9.05
2023-01-29T20:05:39.875Z,10.70
2023-01-29T20:08:28.558Z,9.98
2023-01-29T20:11:20.055Z,9.85
2023-01-29T20:14:08.339Z,10.88
2023-01-29T20:16:56.343Z,10.10
2023-01-29T20:19:45.602Z,10.10
2023-01-29T20:22:33.417Z,10.53
2023-01-29T20:25:21.309Z,10.50
2023-01-29T20:28:13.891Z,10.90
2023-01-29T20:31:01.827Z,11.35
2023-01-29T20:33:51.812Z,10.57
2023-01-29T20:39:30.631Z,10.00
2023-01-29T20:42:18.664Z,10.23
2023-01-29T20:45:07.797Z,9.43
2023-01-29T20:47:59.257Z,8.90
2023-01-29T20:50:47.394Z,8.95
2023-01-29T20:53:36.471Z,9.48
2023-01-29T20:56:36.925Z,9.35
2023-01-29T20:59:31.964Z,9.63
2023-01-29T21:02:26.529Z,9.82
2023-01-29T21:05:16.305Z,10.05
2023-01-29T21:08:04.531Z,9.73
2023-01-29T21:10:56.229Z,9.70
2023-01-29T21:13:47.494Z,9.30
2023-01-29T21:16:35.690Z,10.40
2023-01-29T21:19:23.984Z,9.88
2023-01-29T21:22:11.935Z,10.18
2023-01-29T21:24:59.747Z,10.32
2023-01-29T21:27:47.301Z,10.00
2023-01-29T21:30:35.341Z,10.13
2023-01-29T21:33:24.078Z,11.07
2023-01-29T21:36:12.713Z,11.98
2023-01-29T21:39:00.611Z,10.82
2023-01-29T21:42:09.564Z,10.80
2023-01-29T21:44:57.581Z,11.50
2023-01-29T21:47:45.294Z,10.23
2023-01-29T21:50:32.536Z,11.15
2023-01-29T21:53:19.964Z,12.07
2023-01-29T21:56:07.312Z,11.57
2023-01-29T21:58:54.542Z,10.65
2023-01-29T22:01:41.710Z,11.77
2023-01-29T22:04:29.167Z,10.60
2023-01-29T22:07:16.448Z,11.18
2023-01-29T22:10:04.540Z,11.63
2023-01-29T22:12:51.689Z,11.77
2023-01-29T22:15:38.880Z,11.88
2023-01-29T22:18:26.201Z,12.30
2023-01-29T22:21:13.248Z,12.48
2023-01-29T22:24:00.440Z,11.90
2023-01-29T22:26:49.434Z,12.60
2023-01-29T22:29:36.624Z,11.63
2023-01-29T22:32:23.815Z,12.18
2023-01-29T22:35:10.887Z,12.07
2023-01-29T22:37:57.972Z,12.68
2023-01-29T22:40:55.861Z,12.73
2023-01-29T22:43:44.203Z,12.82
2023-01-29T22:46:31.324Z,12.50
2023-01-29T22:49:19.809Z,13.00
2023-01-29T22:52:12.958Z,13.25
2023-01-29T22:55:00.043Z,12.98
2023-01-29T22:57:49.893Z,13.00
2023-01-29T23:00:36.981Z,13.73
2023-01-29T23:03:24.372Z,14.05
2023-01-29T23:06:11.422Z,13.70
2023-01-29T23:08:58.558Z,13.80
2023-01-29T23:11:45.642Z,14.73
2023-01-29T23:14:32.677Z,14.60
2023-01-29T23:17:20.005Z,13.35
2023-01-29T23:20:08.382Z,13.93
2023-01-29T23:22:55.782Z,15.05
2023-01-29T23:26:01.221Z,13.27
2023-01-29T23:28:48.616Z,12.68
2023-01-29T23:31:35.845Z,13.13
2023-01-29T23:34:23.052Z,13.73
2023-01-29T23:37:10.162Z,14.65
2023-01-29T23:39:57.270Z,14.48
2023-01-29T23:42:44.563Z,14.82
2023-01-29T23:45:31.623Z,13.90
2023-01-29T23:48:18.806Z,12.48
2023-01-29T23:51:06.104Z,14.18
2023-01-29T23:53:53.245Z,14.80
2023-01-29T23:56:40.431Z,14.27
2023-01-29T23:59:28.997Z,14.48
